Ana Sayfa
METAR-TAF:

METAR-TAF

Havaalanları :

Beyrut, Lübnan

Enlem: 33-49N, Boylam: 035-29E, yükseklik: 29 m

Güncel hava durumu gözlemi

Rapor saat 16:00 UTC de 26 dakika önce yapıldı.
Rüzgar güneybatıdan 10 kt
Sıcaklık 25°C
Nem 79%
Basınç 1014 hPa
Görüş mesafesi 10 km veya daha fazla
2600 ft yükseklikte az bulutlu
8000 ft yükseklikte az bulutlu

METAR: OLBA 231600Z 23010KT 9999 FEW026 FEW080 25/21 Q1014 NOSIG

Saat: 19:26 (16:26 UTC)

Tahmin

Rapor saat 10:00 UTC de 6 saat ve 26 dakika önce yapıldı.
Ayın 23'si saat 12 UTC'den ayın 24'si saat 18 UTC'ye kadar geçerli Tahmin
Rüzgar batı/güneybatıdan 10 kt
Görüş mesafesi: 6000 m
2600 ft yükseklikte parçalı bulutlu
Geçici
ayın 23'si saat 18 UTC'den ayın 24'si saat 06 UTC'ye kadar
Görüş mesafesi: 5000 m
Pus

TAF: OLBA 231000Z 2312/2418 25010KT 6000 SCT026 TEMPO 2318/2406 5000 BR

4.000'den fazla havaalanı için hava durumu gözlemleri ve tahminleri (METAR ve TAF raporları).

Kullanılabilir istasyonlar harita üzerinde sarı ve kırmızı noktalarla gösterilir.

İstasyonun adını görmek için fareyi noktanın üzerinde gezdirin.

Sonrasında hava gözlem ve tahminlerini görmek için tıklayın.

Haritayı değiştirmek için: yaklaştırmak için siyah artı işaretli yeşil düğmeye ve uzaklaştırmak için de eksi işaretli düğmeye hızla tıklayın; bitişik haritalar için yeşil okları kullanın.


METAR-TAF: